Terminal Aerodrome Forecast
Issued by NWS

Current Version | Previous Version | Text Only | Print | Product List | Glossary On
Versions: 1 2 3 4 5 6 7 8 9 10 11 12 13 14 15 16 17 18 19 20 21 22 23 24 25 26 27
000
FTUS41 KOKX 282000 AAA
TAFHPN
TAF AMD
KHPN 282033Z 2821/2918 30012G19KT P6SM SCT040
     FM282200 31009KT P6SM SKC
     FM290400 31004KT P6SM SCT100 SCT250
     FM291400 24005KT P6SM SCT070 BKN100
      AMD NOT SKED=

USA.gov is the U.S. government's official web portal to all federal, state and local government web resources and services.